SBSG

Governador Aluízio Alves International Airport

Natal, Brazil
TAF SBSG 202200Z 2100/2124 18006KT 9000 SCT018 TN23/2108Z TX30/2115Z BECMG 2101/2103 22004KT BECMG 2111/2112 17008KT 8000 BKN020 BECMG 2114/2116 16012KT SCT030 RMK PEA
Issued Valid From Valid To
Apr-20 @ 22:00 UTC
(6 hours ago)
Apr-21 @ 00:00 UTC
(4 hours ago)
Apr-22 @ 00:00 UTC
(in 20 hours)
Expired Click to View Apr-21 @ 00:00 to Apr-21 @ 01:00
TAF SBSG 202200Z 2100/2124 18006KT 9000 SCT018 TN23/2108Z TX30/2115Z
Wind Visibility Clouds
180° at 6 knots 8,996 meters
  • Scattered at 1,800' AGL
Becoming Apr-21 @ 01:00 to Apr-21 @ 11:00
BECMG 2101/2103 22004KT
Wind Visibility Clouds
220° at 4 knots 8,996 meters
  • Scattered at 1,800' AGL
Becoming Apr-21 @ 11:00 to Apr-21 @ 14:00
BECMG 2111/2112 17008KT 8000 BKN020
Wind Visibility Clouds
170° at 8 knots 7,998 meters
  • Broken at 2,000' AGL
Becoming Apr-21 @ 14:00 to Apr-22 @ 00:00
BECMG 2114/2116 16012KT SCT030 RMK PEA
Wind Visibility Clouds
160° at 12 knots 7,998 meters
  • Scattered at 3,000' AGL
TAF SBSG 202200Z 2100/2124 18006KT 9000 SCT018 TN23/2108Z TX30/2115Z BECMG 2101/2103 22004KT BECMG 2111/2112 17008KT 8000 BKN020 BECMG 2114/2116 16012KT SCT030 RMK PEA
Issued Apr-20 @ 22:00 UTC
(6 hours ago)
Valid From Apr-21 @ 00:00 UTC
(4 hours ago)
Valid To Apr-22 @ 00:00 UTC
(in 20 hours)
Apr-21 @ 00:00 - Apr-21 @ 01:00
Wind Visibility
180° at 6 knots 8,996 meters
Clouds
  • Scattered at 1,800' AGL
Becoming Apr-21 @ 01:00 - Apr-21 @ 11:00
Wind Visibility
220° at 4 knots 8,996 meters
Clouds
  • Scattered at 1,800' AGL
Becoming Apr-21 @ 11:00 - Apr-21 @ 14:00
Wind Visibility
170° at 8 knots 7,998 meters
Clouds
  • Broken at 2,000' AGL
Becoming Apr-21 @ 14:00 - Apr-22 @ 00:00
Wind Visibility
160° at 12 knots 7,998 meters
Clouds
  • Scattered at 3,000' AGL